Time;durP1;ratioP1;P1;durP2;ratioP2;P2;SDS_P1;SDS_P2;PMS_P1;PMS_P2;Temp;Humidity;BMP_temperature;BMP_pressure;BME280_temperature;BME280_humidity;BME280_pressure;Samples;Min_cycle;Max_cycle;Signal;HPM_P1;HPM_P2
2023/07/31 00:00:30;;;;;;;2.33;1.13;;;16.10;99.90;;;;;;5020733;28;20064;-85
2023/07/31 00:02:56;;;;;;;1.90;1.05;;;16.20;99.90;;;;;;5028579;28;20697;-84
2023/07/31 00:05:24;;;;;;;2.15;0.90;;;16.00;99.90;;;;;;5028182;28;20030;-84
2023/07/31 00:07:49;;;;;;;2.22;1.25;;;16.00;99.90;;;;;;5023515;28;20028;-83
2023/07/31 00:10:15;;;;;;;1.38;1.00;;;16.10;99.90;;;;;;5028185;28;20025;-80
2023/07/31 00:12:43;;;;;;;1.60;1.05;;;16.10;99.90;;;;;;5028129;28;20118;-81
2023/07/31 00:15:09;;;;;;;1.15;1.05;;;16.20;99.90;;;;;;5026104;28;20025;-82
2023/07/31 00:17:35;;;;;;;1.35;1.25;;;16.10;99.90;;;;;;5026856;28;20113;-81
2023/07/31 00:20:01;;;;;;;4.05;1.17;;;16.10;99.90;;;;;;5020888;28;20159;-82
2023/07/31 00:22:27;;;;;;;2.20;1.50;;;16.10;99.90;;;;;;5028062;28;20092;-82
2023/07/31 00:24:52;;;;;;;3.65;1.50;;;16.10;99.90;;;;;;5022416;28;20032;-81
2023/07/31 00:27:18;;;;;;;2.53;1.73;;;16.20;99.90;;;;;;5027929;28;20025;-82
2023/07/31 00:29:43;;;;;;;3.65;2.00;;;16.40;99.90;;;;;;5023771;28;20049;-81
2023/07/31 00:32:09;;;;;;;8.27;2.88;;;16.40;99.90;;;;;;5028761;28;20014;-82
2023/07/31 00:34:35;;;;;;;8.73;4.10;;;16.50;99.90;;;;;;5028890;28;20452;-83
2023/07/31 00:37:00;;;;;;;7.97;3.78;;;16.60;99.90;;;;;;5028926;28;20053;-82
2023/07/31 00:39:26;;;;;;;15.60;4.75;;;16.70;99.90;;;;;;5027889;28;20489;-84
2023/07/31 00:41:51;;;;;;;13.75;5.35;;;16.70;99.90;;;;;;5026535;28;20022;-84
2023/07/31 00:44:17;;;;;;;18.17;6.25;;;16.80;99.90;;;;;;5028806;28;20025;-82
2023/07/31 00:46:42;;;;;;;24.75;6.45;;;16.90;99.90;;;;;;5030171;28;20087;-83
2023/07/31 00:49:09;;;;;;;18.20;6.03;;;17.00;99.90;;;;;;5029305;28;20049;-84
2023/07/31 00:51:35;;;;;;;17.75;6.15;;;17.00;99.90;;;;;;5034930;28;20437;-83
2023/07/31 00:54:01;;;;;;;20.05;6.55;;;17.00;99.90;;;;;;5026353;28;20060;-82
2023/07/31 00:56:27;;;;;;;23.38;6.95;;;17.10;99.90;;;;;;5029627;28;20013;-83
2023/07/31 00:58:53;;;;;;;20.40;6.85;;;17.10;99.90;;;;;;5027125;28;20036;-84
2023/07/31 01:01:19;;;;;;;22.92;7.57;;;17.00;99.90;;;;;;5028589;28;20021;-82
2023/07/31 01:03:44;;;;;;;18.67;7.53;;;17.10;99.90;;;;;;5027778;28;20030;-82
2023/07/31 01:06:29;;;;;;;15.70;6.90;;;17.20;99.90;;;;;;5026673;28;20032;-82
2023/07/31 01:09:02;;;;;;;21.02;7.60;;;17.20;99.90;;;;;;5027235;28;20033;-81
2023/07/31 01:11:30;;;;;;;29.05;8.15;;;17.20;99.90;;;;;;5026620;28;20676;-82
2023/07/31 01:13:57;;;;;;;20.70;7.10;;;17.20;99.90;;;;;;5028693;28;20033;-82
2023/07/31 01:16:23;;;;;;;24.90;8.00;;;17.20;99.90;;;;;;5028977;28;20029;-83
2023/07/31 01:18:48;;;;;;;34.30;7.65;;;17.20;99.90;;;;;;5028340;28;20041;-82
2023/07/31 01:21:35;;;;;;;15.85;5.93;;;17.20;99.90;;;;;;5027111;28;20018;-82
2023/07/31 01:24:16;;;;;;;27.67;7.47;;;17.30;99.90;;;;;;5020309;28;20023;-83
2023/07/31 01:26:47;;;;;;;24.17;7.30;;;17.30;99.90;;;;;;5028780;28;20029;-82
2023/07/31 01:29:42;;;;;;;15.60;5.88;;;17.30;99.90;;;;;;5024699;28;20028;-82
2023/07/31 01:32:10;;;;;;;20.08;5.90;;;17.30;99.90;;;;;;5027168;28;20444;-82
2023/07/31 01:34:37;;;;;;;18.73;5.90;;;17.30;99.90;;;;;;5027405;28;20033;-82
2023/07/31 01:37:03;;;;;;;21.33;6.20;;;17.40;99.90;;;;;;5026399;28;20056;-83
2023/07/31 01:39:28;;;;;;;23.05;6.35;;;17.30;99.90;;;;;;5026032;28;20033;-82
2023/07/31 01:41:57;;;;;;;14.55;5.95;;;17.30;99.90;;;;;;5026775;28;20513;-82
2023/07/31 01:44:22;;;;;;;20.08;5.90;;;17.40;99.90;;;;;;5026009;28;20100;-81
2023/07/31 01:46:48;;;;;;;17.13;5.60;;;17.40;99.90;;;;;;5026574;28;20021;-82
2023/07/31 01:49:13;;;;;;;17.98;5.53;;;17.50;99.90;;;;;;5025321;28;20041;-82
2023/07/31 01:51:39;;;;;;;17.60;5.38;;;17.40;99.90;;;;;;5033996;28;20108;-83
2023/07/31 01:54:05;;;;;;;17.70;5.70;;;17.50;99.90;;;;;;5027310;28;20033;-83
2023/07/31 01:56:31;;;;;;;18.83;5.82;;;17.50;99.90;;;;;;5035498;28;20495;-82
2023/07/31 01:58:56;;;;;;;13.32;4.78;;;17.50;99.90;;;;;;5027356;28;20065;-82
2023/07/31 02:01:22;;;;;;;18.48;5.95;;;17.50;99.90;;;;;;5027444;28;20025;-82
2023/07/31 02:03:47;;;;;;;13.30;5.13;;;17.40;99.90;;;;;;5033618;28;20025;-82
2023/07/31 02:06:13;;;;;;;17.33;4.38;;;17.40;99.90;;;;;;5026923;28;20029;-83
2023/07/31 02:08:38;;;;;;;14.88;4.55;;;17.40;99.90;;;;;;5027823;28;20587;-82
2023/07/31 02:11:04;;;;;;;23.67;5.00;;;17.50;99.90;;;;;;5026695;28;20021;-82
2023/07/31 02:13:32;;;;;;;17.85;5.38;;;17.50;99.90;;;;;;5026900;28;20108;-82
2023/07/31 02:15:58;;;;;;;16.17;5.03;;;17.50;99.90;;;;;;5027338;28;20449;-82
2023/07/31 02:18:23;;;;;;;16.77;5.57;;;17.50;99.90;;;;;;5026707;28;20124;-82
2023/07/31 02:20:50;;;;;;;19.65;5.10;;;17.50;99.90;;;;;;5026333;28;20469;-83
2023/07/31 02:23:22;;;;;;;16.80;4.28;;;17.50;99.90;;;;;;5023491;28;20481;-82
2023/07/31 02:25:47;;;;;;;21.85;4.82;;;17.50;99.90;;;;;;5022442;28;20409;-82
2023/07/31 02:28:13;;;;;;;17.02;4.60;;;17.40;99.90;;;;;;5025504;28;20030;-82
2023/07/31 02:30:39;;;;;;;17.33;4.55;;;17.50;99.90;;;;;;5176426;22;20392;-79
2023/07/31 02:33:05;;;;;;;20.98;5.57;;;17.40;99.90;;;;;;5046774;28;20029;-80
2023/07/31 02:35:31;;;;;;;17.05;4.53;;;17.50;99.90;;;;;;5044823;28;20021;-81
2023/07/31 02:37:56;;;;;;;13.32;5.28;;;17.50;99.90;;;;;;5028335;28;20099;-81
2023/07/31 02:40:23;;;;;;;12.95;3.95;;;17.40;99.90;;;;;;5029357;28;20167;-80
2023/07/31 02:42:48;;;;;;;11.27;4.25;;;17.40;99.90;;;;;;5028273;28;20354;-79
2023/07/31 02:45:14;;;;;;;17.45;4.88;;;17.40;99.90;;;;;;5046644;28;20078;-82
2023/07/31 02:47:40;;;;;;;13.30;4.32;;;17.50;99.90;;;;;;5046560;28;20104;-83
2023/07/31 02:50:06;;;;;;;21.48;6.03;;;17.50;99.90;;;;;;5047171;28;20017;-83
2023/07/31 02:52:31;;;;;;;13.88;4.10;;;17.50;99.90;;;;;;5021189;28;20021;-82
2023/07/31 02:54:58;;;;;;;13.32;4.25;;;17.50;99.90;;;;;;5045651;28;20527;-82
2023/07/31 02:57:23;;;;;;;15.82;4.97;;;17.50;99.90;;;;;;5029519;28;20358;-83
2023/07/31 02:59:49;;;;;;;15.05;4.88;;;17.40;99.90;;;;;;5045880;28;20033;-83
2023/07/31 03:02:14;;;;;;;12.23;5.03;;;17.30;99.90;;;;;;5045782;28;20079;-82
2023/07/31 03:04:40;;;;;;;14.38;4.57;;;17.30;99.90;;;;;;5042904;28;20104;-82
2023/07/31 03:07:06;;;;;;;25.05;4.90;;;17.40;99.90;;;;;;5047362;28;20029;-82
2023/07/31 03:09:34;;;;;;;18.25;4.15;;;17.30;99.90;;;;;;5161352;22;20049;-81
2023/07/31 03:12:00;;;;;;;21.80;4.30;;;17.40;99.90;;;;;;5004287;28;20033;-81
2023/07/31 03:14:28;;;;;;;19.35;5.10;;;17.50;99.90;;;;;;5007164;28;20018;-81
2023/07/31 03:16:54;;;;;;;16.65;4.43;;;17.40;99.90;;;;;;5012592;28;20476;-81
2023/07/31 03:19:19;;;;;;;13.27;4.90;;;17.40;99.90;;;;;;5006087;28;20125;-81
2023/07/31 03:21:47;;;;;;;17.60;5.35;;;17.40;99.90;;;;;;5004721;28;20034;-80
2023/07/31 03:24:15;;;;;;;16.13;4.68;;;17.40;99.90;;;;;;5006346;28;20072;-81
2023/07/31 03:26:41;;;;;;;24.52;5.55;;;17.40;99.90;;;;;;5005453;28;20026;-81
2023/07/31 03:29:07;;;;;;;16.05;4.85;;;17.30;99.90;;;;;;5002601;28;20045;-81
2023/07/31 03:31:33;;;;;;;13.75;4.60;;;17.30;99.90;;;;;;4999301;28;20438;-81
2023/07/31 03:33:59;;;;;;;16.52;5.07;;;17.40;99.90;;;;;;5008292;28;20022;-81
2023/07/31 03:36:24;;;;;;;12.30;5.18;;;17.40;99.90;;;;;;5017397;28;20049;-82
2023/07/31 03:38:52;;;;;;;18.00;5.32;;;17.30;99.90;;;;;;5010519;28;20048;-81
2023/07/31 03:41:17;;;;;;;13.65;4.50;;;17.30;99.90;;;;;;5007964;28;20018;-83
2023/07/31 03:43:43;;;;;;;19.65;5.53;;;17.40;99.90;;;;;;5007897;28;20044;-81
2023/07/31 03:46:08;;;;;;;8.27;4.20;;;17.30;99.90;;;;;;5010555;28;20033;-81
2023/07/31 03:48:34;;;;;;;17.67;4.80;;;17.40;99.90;;;;;;5007995;28;20545;-81
2023/07/31 03:51:00;;;;;;;15.73;4.80;;;17.30;99.90;;;;;;5007812;28;20060;-81
2023/07/31 03:53:25;;;;;;;16.67;5.05;;;17.30;99.90;;;;;;5016558;28;20025;-81
2023/07/31 03:55:51;;;;;;;15.50;5.00;;;17.40;99.90;;;;;;5006625;28;20033;-81
2023/07/31 03:58:16;;;;;;;16.95;5.10;;;17.40;99.90;;;;;;4998305;28;20453;-81
2023/07/31 04:00:42;;;;;;;14.73;5.18;;;17.40;99.90;;;;;;5004649;28;20448;-82
2023/07/31 04:03:08;;;;;;;15.07;4.57;;;17.40;99.90;;;;;;5010988;28;20036;-81
2023/07/31 04:05:37;;;;;;;12.75;4.82;;;17.40;99.90;;;;;;5009376;28;20496;-82
2023/07/31 04:08:03;;;;;;;15.60;5.05;;;17.50;99.90;;;;;;5006520;28;20033;-82
2023/07/31 04:10:29;;;;;;;21.95;5.28;;;17.50;99.90;;;;;;5008509;28;20022;-81
2023/07/31 04:12:55;;;;;;;17.23;4.75;;;17.50;99.90;;;;;;5007900;28;20026;-81
2023/07/31 04:15:20;;;;;;;18.33;4.93;;;17.50;99.90;;;;;;5006227;28;20029;-81
2023/07/31 04:17:46;;;;;;;22.63;5.50;;;17.50;99.90;;;;;;5001225;28;20022;-78
2023/07/31 04:20:11;;;;;;;22.85;4.93;;;17.60;99.90;;;;;;5007677;28;20462;-79
2023/07/31 04:22:37;;;;;;;20.20;5.30;;;17.60;99.90;;;;;;5008202;28;20056;-80
2023/07/31 04:25:03;;;;;;;18.98;5.18;;;17.60;99.90;;;;;;5008150;28;20092;-81
2023/07/31 04:27:28;;;;;;;21.40;5.10;;;17.60;99.90;;;;;;5006457;28;20026;-83
2023/07/31 04:29:54;;;;;;;17.70;4.32;;;17.60;99.90;;;;;;5008229;28;20079;-82
2023/07/31 04:32:20;;;;;;;21.67;5.03;;;17.60;99.90;;;;;;5009604;28;20053;-80
2023/07/31 04:34:46;;;;;;;10.75;4.35;;;17.60;99.90;;;;;;5007096;28;20057;-80
2023/07/31 04:37:12;;;;;;;14.52;4.68;;;17.60;99.90;;;;;;5007505;28;20127;-83
2023/07/31 04:39:37;;;;;;;17.92;4.95;;;17.60;99.90;;;;;;5016512;28;20034;-83
2023/07/31 04:42:06;;;;;;;13.68;4.40;;;17.60;99.90;;;;;;5007605;28;20108;-81
2023/07/31 04:44:32;;;;;;;19.33;4.80;;;17.70;99.90;;;;;;5007945;28;20061;-81
2023/07/31 04:46:57;;;;;;;15.52;5.10;;;17.70;99.90;;;;;;5007018;28;20054;-81
2023/07/31 04:49:23;;;;;;;18.83;4.53;;;17.80;99.90;;;;;;5005154;28;20022;-80
2023/07/31 04:51:48;;;;;;;21.10;4.57;;;17.70;99.90;;;;;;5005720;28;20401;-81
2023/07/31 04:54:17;;;;;;;17.52;5.07;;;17.80;99.90;;;;;;5005859;28;20022;-82
2023/07/31 04:56:45;;;;;;;19.98;5.22;;;17.80;99.90;;;;;;5005579;28;20098;-80
2023/07/31 04:59:10;;;;;;;17.00;4.93;;;17.70;99.90;;;;;;5006114;28;20617;-81
2023/07/31 05:01:36;;;;;;;20.02;4.38;;;17.80;99.90;;;;;;5007636;28;20036;-81
2023/07/31 05:04:02;;;;;;;17.17;4.43;;;17.90;99.90;;;;;;5004495;28;20022;-83
2023/07/31 05:06:27;;;;;;;10.63;4.38;;;17.90;99.90;;;;;;5008558;28;20076;-80
2023/07/31 05:08:53;;;;;;;13.30;4.38;;;17.90;99.90;;;;;;5155882;22;20076;-82
2023/07/31 05:11:18;;;;;;;14.23;4.18;;;17.90;99.90;;;;;;5013545;28;20022;-82
2023/07/31 05:13:44;;;;;;;20.40;4.82;;;17.90;99.90;;;;;;5012784;28;20514;-83
2023/07/31 05:16:10;;;;;;;17.50;4.70;;;18.00;99.90;;;;;;5017357;28;20029;-82
2023/07/31 05:18:35;;;;;;;14.68;4.97;;;18.00;99.90;;;;;;5160829;22;20053;-81
2023/07/31 05:21:01;;;;;;;19.83;4.70;;;18.00;99.90;;;;;;5019585;28;20105;-81
2023/07/31 05:23:26;;;;;;;17.40;4.43;;;17.90;99.90;;;;;;5015416;28;20022;-82
2023/07/31 05:25:52;;;;;;;21.02;4.93;;;17.90;99.90;;;;;;5015720;28;20033;-83
2023/07/31 05:28:17;;;;;;;17.67;4.28;;;18.00;99.90;;;;;;5018158;28;20014;-81
2023/07/31 05:30:43;;;;;;;13.80;4.07;;;18.10;99.90;;;;;;5015683;28;20466;-78
2023/07/31 05:33:09;;;;;;;19.60;4.95;;;18.20;99.90;;;;;;5017718;28;20025;-82
2023/07/31 05:35:34;;;;;;;22.10;4.95;;;18.10;99.90;;;;;;5153301;22;20050;-81
2023/07/31 05:38:00;;;;;;;20.38;4.38;;;18.20;99.90;;;;;;4997011;28;20072;-81
2023/07/31 05:40:25;;;;;;;12.82;4.72;;;18.20;99.90;;;;;;5009442;28;20018;-81
2023/07/31 05:42:51;;;;;;;16.38;5.15;;;18.20;99.90;;;;;;5004119;28;20060;-80
2023/07/31 05:45:17;;;;;;;18.02;4.55;;;18.20;99.90;;;;;;4996479;28;20037;-79
2023/07/31 05:47:42;;;;;;;17.00;4.80;;;18.30;99.90;;;;;;4999442;28;20104;-79
2023/07/31 05:50:08;;;;;;;13.45;4.53;;;18.30;99.90;;;;;;4999701;28;20117;-80
2023/07/31 05:52:34;;;;;;;12.88;4.82;;;18.40;99.90;;;;;;4999744;28;20065;-80
2023/07/31 05:54:59;;;;;;;14.48;4.82;;;18.30;99.90;;;;;;4995519;28;20037;-80
2023/07/31 05:57:25;;;;;;;13.85;4.45;;;18.40;99.90;;;;;;5004663;28;20505;-78
2023/07/31 05:59:51;;;;;;;15.93;4.47;;;18.40;99.90;;;;;;4997571;28;20038;-78
2023/07/31 06:02:16;;;;;;;13.25;5.10;;;18.40;99.90;;;;;;4996062;28;20022;-81
2023/07/31 06:04:42;;;;;;;15.27;4.65;;;18.30;99.90;;;;;;4997948;28;20100;-79
2023/07/31 06:07:08;;;;;;;13.00;4.75;;;18.30;99.90;;;;;;4999096;28;20033;-81
2023/07/31 06:09:33;;;;;;;12.88;4.82;;;18.40;99.90;;;;;;4999752;28;20022;-80
2023/07/31 06:12:01;;;;;;;14.88;5.15;;;18.50;99.90;;;;;;5003010;28;20037;-80
2023/07/31 06:14:27;;;;;;;21.92;5.72;;;18.30;99.90;;;;;;4995827;28;20520;-80
2023/07/31 06:16:52;;;;;;;16.65;4.63;;;18.30;99.90;;;;;;5000209;28;20451;-82
2023/07/31 06:19:20;;;;;;;12.60;4.65;;;18.20;99.90;;;;;;4999805;28;20489;-79
2023/07/31 06:21:48;;;;;;;10.35;5.05;;;18.20;99.90;;;;;;4998939;28;20022;-80
2023/07/31 06:24:18;;;;;;;10.75;4.38;;;18.20;99.90;;;;;;5003046;28;20110;-79
2023/07/31 06:26:44;;;;;;;13.60;4.32;;;18.10;99.90;;;;;;4997725;28;21063;-82
2023/07/31 06:29:10;;;;;;;14.30;5.45;;;18.10;99.90;;;;;;5013174;28;20060;-80
2023/07/31 06:31:35;;;;;;;11.68;3.90;;;17.90;99.90;;;;;;4996204;28;20093;-79
2023/07/31 06:34:03;;;;;;;7.15;3.85;;;17.90;99.90;;;;;;5000551;28;20709;-81
2023/07/31 06:36:29;;;;;;;7.60;4.15;;;17.80;99.90;;;;;;5004645;28;20444;-79
2023/07/31 06:38:54;;;;;;;7.63;3.95;;;17.80;99.90;;;;;;5001166;28;20033;-80
2023/07/31 06:41:20;;;;;;;13.10;6.20;;;17.80;99.90;;;;;;5004001;28;20049;-80
2023/07/31 06:43:45;;;;;;;10.05;4.68;;;17.70;99.90;;;;;;4996548;28;20049;-80
2023/07/31 06:46:13;;;;;;;17.25;7.78;;;17.60;99.90;;;;;;4995746;28;20030;-80
2023/07/31 06:48:39;;;;;;;8.57;4.13;;;17.60;99.90;;;;;;4998542;28;20052;-80
2023/07/31 06:51:05;;;;;;;9.00;3.97;;;17.70;99.90;;;;;;4996851;28;20022;-80
2023/07/31 06:53:30;;;;;;;11.48;4.10;;;17.70;99.90;;;;;;4997392;28;20049;-83
2023/07/31 06:55:56;;;;;;;9.88;4.35;;;17.70;99.90;;;;;;5000936;28;20041;-80
2023/07/31 06:58:21;;;;;;;9.30;4.22;;;17.80;99.90;;;;;;5000509;28;20125;-81
2023/07/31 07:00:49;;;;;;;10.15;5.13;;;17.80;99.90;;;;;;4998106;28;20638;-81
2023/07/31 07:03:18;;;;;;;7.35;4.03;;;17.80;99.90;;;;;;4996426;28;20478;-81
2023/07/31 07:05:44;;;;;;;11.40;4.25;;;17.80;99.90;;;;;;4998239;28;20120;-81
2023/07/31 07:08:09;;;;;;;9.75;3.97;;;17.80;99.90;;;;;;4995204;28;20105;-83
2023/07/31 07:10:35;;;;;;;11.18;4.00;;;17.80;99.90;;;;;;4998811;28;20029;-81
2023/07/31 07:13:01;;;;;;;7.57;3.45;;;17.80;99.90;;;;;;5000205;28;20114;-81
2023/07/31 07:15:26;;;;;;;6.72;3.72;;;17.80;99.90;;;;;;4998135;28;20026;-81
2023/07/31 07:17:52;;;;;;;6.35;3.90;;;17.90;99.90;;;;;;4997550;28;20027;-81
2023/07/31 07:20:19;;;;;;;4.13;2.60;;;17.80;99.90;;;;;;4996150;28;20097;-81
2023/07/31 07:22:45;;;;;;;5.28;3.33;;;17.90;99.90;;;;;;5004383;28;20030;-80
2023/07/31 07:25:11;;;;;;;3.33;2.85;;;17.80;99.90;;;;;;4993993;28;20033;-81
2023/07/31 07:27:37;;;;;;;6.63;3.50;;;17.80;99.90;;;;;;4997449;28;20034;-81
2023/07/31 07:30:03;;;;;;;8.35;3.25;;;17.70;99.90;;;;;;5000576;28;20029;-80
2023/07/31 07:32:31;;;;;;;5.30;3.00;;;17.80;99.90;;;;;;4995845;28;20471;-80
2023/07/31 07:34:57;;;;;;;5.30;3.22;;;17.80;99.90;;;;;;4996801;28;20129;-81
2023/07/31 07:37:22;;;;;;;5.13;3.60;;;17.80;99.90;;;;;;4994781;28;20105;-80
2023/07/31 07:39:48;;;;;;;8.15;3.35;;;17.70;99.90;;;;;;4996861;28;20030;-80
2023/07/31 07:42:13;;;;;;;7.60;3.60;;;17.60;99.90;;;;;;4999092;28;20022;-81
2023/07/31 07:44:41;;;;;;;7.40;3.22;;;17.80;99.90;;;;;;4999808;28;20494;-80
2023/07/31 07:47:07;;;;;;;6.85;3.45;;;17.80;99.90;;;;;;4997462;28;20034;-80
2023/07/31 07:49:34;;;;;;;6.53;3.00;;;17.70;99.90;;;;;;4995679;28;20492;-82
2023/07/31 07:52:00;;;;;;;3.10;2.80;;;17.80;99.90;;;;;;4996671;28;20109;-81
2023/07/31 07:54:26;;;;;;;5.47;3.05;;;17.80;99.90;;;;;;4995372;28;20113;-79
2023/07/31 07:56:51;;;;;;;5.43;2.65;;;17.70;99.90;;;;;;5000180;28;20096;-81
2023/07/31 07:59:17;;;;;;;3.58;2.92;;;17.80;99.90;;;;;;5001124;28;20030;-81
2023/07/31 08:01:42;;;;;;;5.00;2.78;;;17.80;99.90;;;;;;4997098;28;20389;-81
2023/07/31 08:04:08;;;;;;;3.70;2.97;;;17.80;99.90;;;;;;5011136;28;20466;-81
2023/07/31 08:06:34;;;;;;;5.13;3.05;;;17.80;99.90;;;;;;4995428;28;20208;-81
2023/07/31 08:09:05;;;;;;;3.05;2.33;;;17.70;99.90;;;;;;4992743;28;20058;-81
2023/07/31 08:11:30;;;;;;;4.20;2.63;;;17.90;99.90;;;;;;4998405;28;20030;-81
2023/07/31 08:13:56;;;;;;;5.43;2.80;;;17.90;99.90;;;;;;4995186;28;20651;-81
2023/07/31 08:16:21;;;;;;;3.55;2.60;;;17.90;99.90;;;;;;5007585;28;20023;-81
2023/07/31 08:18:48;;;;;;;4.53;2.25;;;17.90;99.90;;;;;;5003021;28;20091;-81
2023/07/31 08:21:14;;;;;;;9.15;2.90;;;17.90;99.90;;;;;;4997640;28;20470;-81
2023/07/31 08:23:40;;;;;;;4.78;2.85;;;18.00;99.90;;;;;;5001077;28;20129;-81
2023/07/31 08:26:06;;;;;;;4.38;2.35;;;17.90;99.90;;;;;;5002439;28;20104;-80
2023/07/31 08:28:32;;;;;;;5.22;2.58;;;18.00;99.90;;;;;;4998015;28;20041;-81
2023/07/31 08:30:58;;;;;;;2.97;2.58;;;18.10;99.90;;;;;;4999207;28;20031;-81
2023/07/31 08:33:23;;;;;;;7.78;3.85;;;18.10;99.90;;;;;;5000002;28;20033;-81
2023/07/31 08:35:49;;;;;;;4.60;2.60;;;18.00;99.90;;;;;;4998251;28;20034;-82
2023/07/31 08:38:14;;;;;;;3.92;2.47;;;18.00;99.90;;;;;;5000227;28;20034;-81
2023/07/31 08:40:40;;;;;;;5.03;2.45;;;17.90;99.90;;;;;;5012003;28;20029;-81
2023/07/31 08:43:07;;;;;;;4.60;2.35;;;18.00;99.90;;;;;;5000608;28;20026;-81
2023/07/31 08:45:33;;;;;;;2.97;2.53;;;17.90;99.90;;;;;;4993876;28;20035;-81
2023/07/31 08:47:59;;;;;;;3.83;2.35;;;17.80;99.90;;;;;;4998812;28;20030;-81
2023/07/31 08:50:27;;;;;;;4.32;2.42;;;17.80;99.90;;;;;;4999162;28;20033;-83
2023/07/31 08:52:53;;;;;;;3.13;2.28;;;17.90;99.90;;;;;;4996299;28;20109;-83
2023/07/31 08:55:25;;;;;;;5.50;2.47;;;17.70;99.90;;;;;;4992568;28;20193;-81
2023/07/31 08:57:55;;;;;;;6.77;2.57;;;17.70;99.90;;;;;;4999464;28;20045;-81
2023/07/31 09:00:23;;;;;;;3.10;2.60;;;17.80;99.90;;;;;;4998035;28;20054;-81
2023/07/31 09:03:07;;;;;;;2.15;1.95;;;17.90;99.90;;;;;;4995472;28;20060;-84
2023/07/31 09:05:33;;;;;;;2.72;2.10;;;17.80;99.90;;;;;;4993696;28;20479;-84
2023/07/31 09:08:02;;;;;;;88.90;38.05;;;17.80;99.90;;;;;;4997845;28;20486;-79
2023/07/31 09:10:27;;;;;;;10.18;5.00;;;17.80;99.90;;;;;;4996673;28;20526;-79
2023/07/31 09:12:53;;;;;;;3.08;2.63;;;17.90;99.90;;;;;;5004953;28;20041;-82
2023/07/31 09:15:19;;;;;;;3.97;2.58;;;18.00;99.90;;;;;;4998687;28;20481;-83
2023/07/31 09:17:45;;;;;;;2.33;2.13;;;18.00;99.90;;;;;;4997190;28;20068;-83
2023/07/31 09:20:16;;;;;;;5.85;2.65;;;17.90;99.90;;;;;;4997350;28;20050;-81
2023/07/31 09:22:42;;;;;;;2.83;2.35;;;18.00;99.90;;;;;;5001900;28;20584;-80
2023/07/31 09:25:23;;;;;;;2.85;1.88;;;18.00;99.90;;;;;;4998689;28;20128;-83
2023/07/31 09:28:02;;;;;;;3.15;2.42;;;17.70;99.90;;;;;;5001117;28;20018;-81
2023/07/31 09:30:28;;;;;;;5.03;2.55;;;17.90;99.90;;;;;;4998883;28;20022;-81
2023/07/31 09:33:05;;;;;;;2.58;2.10;;;17.90;99.90;;;;;;5003078;28;20019;-80
2023/07/31 09:35:33;;;;;;;3.95;2.72;;;18.00;99.90;;;;;;5001050;28;20874;-80
2023/07/31 09:38:08;;;;;;;2.25;2.05;;;17.90;99.90;;;;;;4998885;28;20057;-81
2023/07/31 09:40:35;;;;;;;3.63;2.17;;;18.00;99.90;;;;;;4997914;28;20054;-80
2023/07/31 09:43:12;;;;;;;6.60;2.70;;;18.00;99.90;;;;;;4999780;28;20027;-85
2023/07/31 09:45:42;;;;;;;3.03;2.50;;;18.00;99.90;;;;;;4995446;28;20073;-85
2023/07/31 09:48:16;;;;;;;5.97;2.53;;;17.90;99.90;;;;;;5001185;28;20034;-85
2023/07/31 09:50:46;;;;;;;5.10;2.42;;;17.90;99.90;;;;;;4998525;28;20037;-86
2023/07/31 09:53:12;;;;;;;3.42;2.50;;;18.00;99.90;;;;;;4999696;28;20443;-87
2023/07/31 09:55:40;;;;;;;3.08;2.33;;;18.10;99.90;;;;;;4999356;28;20125;-83
2023/07/31 09:58:08;;;;;;;4.22;2.42;;;18.30;99.90;;;;;;4993449;28;20129;-79
2023/07/31 10:00:35;;;;;;;2.97;2.20;;;18.20;99.90;;;;;;4998794;28;20426;-80
2023/07/31 10:03:03;;;;;;;5.25;2.53;;;18.30;99.90;;;;;;4999951;28;20026;-84
2023/07/31 10:05:35;;;;;;;2.83;2.30;;;18.20;99.90;;;;;;4999338;28;20056;-83
2023/07/31 10:08:00;;;;;;;5.65;2.72;;;18.30;99.90;;;;;;4994631;28;20031;-79
2023/07/31 10:10:29;;;;;;;3.60;2.40;;;18.30;99.90;;;;;;5009979;28;20041;-84
2023/07/31 10:12:59;;;;;;;1.98;1.88;;;18.30;99.90;;;;;;4999548;28;20025;-83
2023/07/31 10:15:25;;;;;;;2.95;2.50;;;18.20;99.90;;;;;;5003005;28;20587;-83
2023/07/31 10:17:56;;;;;;;2.83;2.53;;;18.20;99.90;;;;;;4997027;28;20029;-84
2023/07/31 10:20:21;;;;;;;132.85;48.72;;;18.10;99.90;;;;;;4996249;28;20585;-82
2023/07/31 10:22:48;;;;;;;3.05;2.75;;;18.10;99.90;;;;;;4997231;28;20058;-83
2023/07/31 10:25:15;;;;;;;4.40;3.17;;;18.30;99.90;;;;;;4999643;28;20018;-81
2023/07/31 10:27:41;;;;;;;6.47;3.28;;;18.30;99.90;;;;;;4997965;28;20034;-82
2023/07/31 10:30:11;;;;;;;6.50;3.25;;;18.20;99.90;;;;;;4997801;28;20022;-80
2023/07/31 10:32:39;;;;;;;4.35;2.97;;;18.30;99.90;;;;;;4994141;28;20376;-82
2023/07/31 10:35:07;;;;;;;5.28;3.90;;;18.30;99.90;;;;;;5001408;28;20129;-83
2023/07/31 10:37:43;;;;;;;11.63;3.95;;;18.30;99.90;;;;;;5001155;28;20097;-84
2023/07/31 10:40:17;;;;;;;6.38;3.40;;;18.40;99.90;;;;;;5000830;28;20034;-81
2023/07/31 10:42:53;;;;;;;7.72;3.97;;;18.40;99.90;;;;;;4997260;28;20037;-80
2023/07/31 10:45:30;;;;;;;8.20;4.38;;;18.30;99.90;;;;;;4999438;28;20054;-80
2023/07/31 10:48:07;;;;;;;10.30;4.57;;;18.30;99.90;;;;;;4997002;28;20076;-80
2023/07/31 10:50:37;;;;;;;7.60;4.22;;;18.40;99.90;;;;;;4996060;28;20010;-82
2023/07/31 10:53:07;;;;;;;6.05;3.42;;;18.50;99.90;;;;;;4993981;28;21060;-81
2023/07/31 10:55:43;;;;;;;7.20;3.92;;;18.60;99.90;;;;;;4993635;28;20073;-81
2023/07/31 10:58:15;;;;;;;6.47;3.95;;;18.70;99.90;;;;;;4993519;28;20032;-83
2023/07/31 11:00:44;;;;;;;4.72;3.80;;;18.60;99.90;;;;;;4993780;28;20038;-80
2023/07/31 11:03:13;;;;;;;9.23;3.83;;;18.90;99.90;;;;;;5001162;28;20646;-81
2023/07/31 11:06:02;;;;;;;8.43;4.10;;;19.00;99.90;;;;;;4993806;28;20029;-82
2023/07/31 11:08:40;;;;;;;6.90;4.35;;;19.30;99.90;;;;;;4989682;28;20044;-82
2023/07/31 11:11:08;;;;;;;9.23;4.15;;;19.50;99.90;;;;;;4986158;28;20053;-81
2023/07/31 11:13:57;;;;;;;5.63;3.60;;;19.70;99.90;;;;;;4991829;28;20030;-81
2023/07/31 11:16:24;;;;;;;6.18;3.15;;;19.70;99.90;;;;;;4994865;28;20050;-82
2023/07/31 11:18:51;;;;;;;6.75;3.60;;;19.70;99.90;;;;;;4991427;28;20134;-79
2023/07/31 11:24:05;;;;;;;7.18;3.70;;;19.60;99.90;;;;;;5055099;23;20054;-85
2023/07/31 11:26:31;;;;;;;6.18;3.35;;;19.60;99.90;;;;;;4996132;28;20109;-85
2023/07/31 11:28:56;;;;;;;4.68;3.63;;;19.60;99.90;;;;;;4993393;28;20121;-83
2023/07/31 11:31:22;;;;;;;7.18;3.55;;;19.70;99.90;;;;;;4996089;28;20018;-81
2023/07/31 11:33:50;;;;;;;5.18;3.63;;;19.70;99.90;;;;;;4996849;28;20030;-81
2023/07/31 11:36:18;;;;;;;6.70;3.47;;;19.90;99.90;;;;;;4994335;28;20482;-87
2023/07/31 11:38:43;;;;;;;127.50;57.83;;;20.00;99.90;;;;;;4994954;28;20266;-92
2023/07/31 11:41:09;;;;;;;8.30;3.97;;;20.20;99.90;;;;;;4998233;28;20401;-86
2023/07/31 11:43:36;;;;;;;7.32;3.83;;;20.00;99.90;;;;;;4992567;28;20029;-87
2023/07/31 11:46:06;;;;;;;4.25;3.45;;;20.00;99.90;;;;;;5001749;28;20033;-90
2023/07/31 11:48:37;;;;;;;3.95;3.55;;;20.10;99.90;;;;;;4996101;28;20033;-83
2023/07/31 11:51:04;;;;;;;4.70;3.30;;;20.10;99.90;;;;;;4988462;28;20109;-85
2023/07/31 11:53:43;;;;;;;6.72;3.22;;;20.00;99.90;;;;;;4993587;28;20036;-87
2023/07/31 11:56:12;;;;;;;4.57;3.30;;;20.10;99.90;;;;;;5018837;28;20557;-91
2023/07/31 11:58:39;;;;;;;7.57;3.17;;;19.90;99.90;;;;;;5012343;28;20041;-85
2023/07/31 12:01:06;;;;;;;6.57;3.58;;;20.00;99.90;;;;;;4995059;28;20022;-87
2023/07/31 12:03:32;;;;;;;5.22;3.20;;;19.80;99.90;;;;;;5000129;28;20505;-89
2023/07/31 12:05:59;;;;;;;7.32;3.55;;;19.80;99.90;;;;;;5001801;28;20084;-87
2023/07/31 12:08:25;;;;;;;7.40;3.58;;;19.90;99.90;;;;;;4997003;28;20017;-88
2023/07/31 12:10:52;;;;;;;5.43;3.67;;;19.90;99.90;;;;;;5000978;28;20022;-82
2023/07/31 12:13:26;;;;;;;9.57;3.40;;;20.00;99.90;;;;;;4996114;28;20648;-85
2023/07/31 12:15:57;;;;;;;3.13;2.90;;;20.00;99.90;;;;;;4994767;28;20026;-81
2023/07/31 12:18:26;;;;;;;7.15;3.60;;;20.00;99.90;;;;;;4993769;28;20038;-82
2023/07/31 12:20:57;;;;;;;3.08;2.75;;;20.10;99.90;;;;;;4992918;28;20823;-80
2023/07/31 12:23:28;;;;;;;4.30;2.90;;;20.20;99.90;;;;;;4992121;28;20037;-81
2023/07/31 12:26:03;;;;;;;4.65;3.00;;;20.20;99.90;;;;;;4994728;28;20037;-81
2023/07/31 12:28:29;;;;;;;7.88;3.00;;;20.30;99.90;;;;;;4992415;28;20037;-80
2023/07/31 12:31:00;;;;;;;5.43;2.78;;;20.40;99.90;;;;;;4991885;28;20041;-84
2023/07/31 12:33:32;;;;;;;5.63;3.22;;;20.50;99.90;;;;;;4995149;28;20066;-86
2023/07/31 12:35:58;;;;;;;3.75;2.60;;;20.50;99.90;;;;;;4999000;28;20537;-87
2023/07/31 12:38:23;;;;;;;4.70;2.58;;;20.60;99.90;;;;;;5005941;28;20132;-90
2023/07/31 12:40:49;;;;;;;183.57;100.18;;;20.70;99.90;;;;;;4996032;28;21162;-82
2023/07/31 12:43:16;;;;;;;3.67;2.90;;;20.80;99.90;;;;;;4994453;28;20105;-83